KJOT/JOT METAR and TAF weather

Enter ICAO airport designator
Station Type Date Time Source
KJOT METAR 2021/01/27 13:15 UTC NOAA

KJOT 271315Z AUTO 02006KT 10SM OVC029 M05/M09 A3031 RMK AO2 T10551087


Station Type Date Time Source
KJOT Decoded METAR 2021/01/27 13:15 UTC NOAA

Joliet, Joliet Regional Airport, IL, United States (KJOT) 41-31-05N 088-10-31W
Jan 27, 2021 - 08:15 AM EST / 2021.01.27 1315 UTC
Wind: from the NNE (020 degrees) at 7 MPH (6 KT):0
Visibility: 10 mile(s):0
Sky conditions: overcast
Temperature: 22.1 F (-5.5 C)
Windchill: 14 F (-10 C):1
Dew Point: 16.3 F (-8.7 C)
Relative Humidity: 78%
Pressure (altimeter): 30.31 in. Hg (1026 hPa)
ob: KJOT 271315Z AUTO 02006KT 10SM OVC029 M05/M09 A3031 RMK AO2 T10551087
cycle: 13

Station Type Date Time Source
KJOT TAF UTC NOAA

Error!

Example: see airport list